createdAt,value
2024-04-14T00:00:10.555Z,53.95
2024-04-14T00:02:40.385Z,53.85
2024-04-14T00:05:07.530Z,53.76
2024-04-14T00:07:35.319Z,53.87
2024-04-14T00:10:02.025Z,52.71
2024-04-14T00:12:28.992Z,53.22
2024-04-14T00:14:56.343Z,53.51
2024-04-14T00:17:23.039Z,53.13
2024-04-14T00:19:54.045Z,52.97
2024-04-14T00:22:21.710Z,53.30
2024-04-14T00:24:48.519Z,52.77
2024-04-14T00:27:15.339Z,52.23
2024-04-14T00:29:42.010Z,52.52
2024-04-14T00:32:08.925Z,52.29
2024-04-14T00:34:35.610Z,52.25
2024-04-14T00:37:02.392Z,51.44
2024-04-14T00:39:29.153Z,52.08
2024-04-14T00:41:56.339Z,52.00
2024-04-14T00:44:22.976Z,51.82
2024-04-14T00:46:49.760Z,51.69
2024-04-14T00:49:16.612Z,51.26
2024-04-14T00:51:43.428Z,51.06
2024-04-14T00:54:12.843Z,51.14
2024-04-14T00:56:40.194Z,50.75
2024-04-14T00:59:06.939Z,50.74
2024-04-14T01:01:33.656Z,50.73
2024-04-14T01:04:00.518Z,50.86
2024-04-14T01:06:27.424Z,50.33
2024-04-14T01:08:54.385Z,51.24
2024-04-14T01:11:21.404Z,50.66
2024-04-14T01:13:48.387Z,50.77
2024-04-14T01:16:15.127Z,50.45
2024-04-14T01:18:41.855Z,50.67
2024-04-14T01:21:08.668Z,50.28
2024-04-14T01:23:35.347Z,51.13
2024-04-14T01:26:02.138Z,50.76
2024-04-14T01:28:28.752Z,50.31
2024-04-14T01:30:55.504Z,50.75
2024-04-14T01:33:22.289Z,50.35
2024-04-14T01:35:49.075Z,49.88
2024-04-14T01:38:22.058Z,50.41
2024-04-14T01:40:52.955Z,50.98
2024-04-14T01:43:19.598Z,51.16
2024-04-14T01:45:46.847Z,50.81
2024-04-14T01:48:13.848Z,50.65
2024-04-14T01:50:40.649Z,50.75
2024-04-14T01:53:07.328Z,50.54
2024-04-14T01:55:34.274Z,50.93
2024-04-14T01:58:01.101Z,50.71
2024-04-14T02:00:28.210Z,50.47
2024-04-14T02:02:57.525Z,50.98
2024-04-14T02:05:24.592Z,51.29
2024-04-14T02:07:51.265Z,51.44
2024-04-14T02:10:18.003Z,51.31
2024-04-14T02:12:44.691Z,51.48
2024-04-14T02:15:11.449Z,51.45
2024-04-14T02:17:38.402Z,51.15
2024-04-14T02:20:05.999Z,51.19
2024-04-14T02:22:33.022Z,51.83
2024-04-14T02:25:00.092Z,52.01
2024-04-14T02:27:26.850Z,51.96
2024-04-14T02:29:53.594Z,52.04
2024-04-14T02:32:21.240Z,51.93
2024-04-14T02:34:48.015Z,51.59
2024-04-14T02:37:14.644Z,52.00
2024-04-14T02:39:41.372Z,52.59
2024-04-14T02:42:08.038Z,52.14
2024-04-14T02:44:34.728Z,52.40
2024-04-14T02:47:01.402Z,52.71
2024-04-14T02:49:29.928Z,52.92
2024-04-14T02:51:57.438Z,52.98
2024-04-14T02:54:24.887Z,53.39
2024-04-14T02:56:51.733Z,53.36
2024-04-14T02:59:18.512Z,53.40
2024-04-14T03:01:48.159Z,53.82
2024-04-14T03:04:15.148Z,53.64
2024-04-14T03:06:41.970Z,54.19
2024-04-14T03:09:08.782Z,54.04
2024-04-14T03:11:35.798Z,54.29
2024-04-14T03:14:02.953Z,54.08
2024-04-14T03:16:29.698Z,54.85
2024-04-14T03:18:56.547Z,54.48
2024-04-14T03:21:24.618Z,54.76
2024-04-14T03:23:51.735Z,54.91
2024-04-14T03:26:18.693Z,54.98
2024-04-14T03:28:45.503Z,55.09
2024-04-14T03:31:12.574Z,54.77
2024-04-14T03:33:39.437Z,55.09
2024-04-14T03:36:08.548Z,55.90
2024-04-14T03:38:35.821Z,55.79
2024-04-14T03:41:03.299Z,55.70
2024-04-14T03:43:30.211Z,56.17
2024-04-14T03:45:57.250Z,55.97
2024-04-14T03:48:24.324Z,56.63
2024-04-14T03:50:51.027Z,56.22
2024-04-14T03:53:17.866Z,56.39
2024-04-14T03:55:44.516Z,56.35
2024-04-14T03:58:11.286Z,56.53
2024-04-14T04:00:38.255Z,57.47
2024-04-14T04:03:05.168Z,57.33
2024-04-14T04:05:31.919Z,57.16
2024-04-14T04:08:00.001Z,57.69
2024-04-14T04:10:26.755Z,57.10
2024-04-14T04:15:20.179Z,58.07
2024-04-14T04:17:49.144Z,57.76
2024-04-14T04:20:15.968Z,58.17
2024-04-14T04:22:42.655Z,58.34
2024-04-14T04:25:09.539Z,57.92
2024-04-14T04:27:36.313Z,59.07
2024-04-14T04:30:03.442Z,58.37
2024-04-14T04:32:30.206Z,59.05
2024-04-14T04:34:56.883Z,58.64
2024-04-14T04:37:23.615Z,58.54
2024-04-14T04:39:50.486Z,58.22
2024-04-14T04:42:17.259Z,58.53
2024-04-14T04:44:44.001Z,58.48
2024-04-14T04:47:10.984Z,59.04
2024-04-14T04:49:37.665Z,58.89
2024-04-14T04:52:04.891Z,59.78
2024-04-14T04:54:31.592Z,59.18
2024-04-14T04:56:58.317Z,59.25
2024-04-14T04:59:25.123Z,59.20
2024-04-14T05:01:51.755Z,59.52
2024-04-14T05:04:18.586Z,59.47
2024-04-14T05:06:45.369Z,60.12
2024-04-14T05:09:12.223Z,59.40
2024-04-14T05:11:38.902Z,59.48
2024-04-14T05:14:06.205Z,59.48
2024-04-14T05:16:32.901Z,59.67
2024-04-14T05:18:59.627Z,59.28
2024-04-14T05:21:26.380Z,59.89
2024-04-14T05:23:53.063Z,59.41
2024-04-14T05:26:19.781Z,59.28
2024-04-14T05:28:46.586Z,59.67
2024-04-14T05:31:13.479Z,59.28
2024-04-14T05:33:40.147Z,59.50
2024-04-14T05:36:07.557Z,59.91
2024-04-14T05:38:36.694Z,58.97
2024-04-14T05:41:03.894Z,59.22
2024-04-14T05:43:30.639Z,58.49
2024-04-14T05:45:58.735Z,58.45
2024-04-14T05:48:25.669Z,58.47
2024-04-14T05:50:52.488Z,58.65
2024-04-14T05:53:19.193Z,58.54
2024-04-14T05:55:47.262Z,58.34
2024-04-14T05:58:14.051Z,57.80
2024-04-14T06:00:41.108Z,57.94
2024-04-14T06:03:08.579Z,58.06
2024-04-14T06:05:35.595Z,58.37
2024-04-14T06:08:03.056Z,57.32
2024-04-14T06:10:29.887Z,58.25
2024-04-14T06:12:56.649Z,57.87
2024-04-14T06:15:25.851Z,58.52
2024-04-14T06:17:52.642Z,58.44
2024-04-14T06:20:19.358Z,58.15
2024-04-14T06:22:46.037Z,58.78
2024-04-14T06:25:12.782Z,58.12
2024-04-14T06:27:39.454Z,58.82
2024-04-14T06:30:08.437Z,58.49
2024-04-14T06:32:36.695Z,58.07
2024-04-14T06:35:03.688Z,57.79
2024-04-14T06:37:30.421Z,58.27
2024-04-14T06:39:57.306Z,58.34
2024-04-14T06:42:23.985Z,58.61
2024-04-14T06:44:50.797Z,58.05
2024-04-14T06:47:17.812Z,58.24
2024-04-14T06:49:44.605Z,58.17
2024-04-14T06:52:11.271Z,57.97
2024-04-14T06:54:37.998Z,58.37
2024-04-14T06:57:05.076Z,58.41
2024-04-14T06:59:31.791Z,58.30
2024-04-14T07:01:58.671Z,58.53
2024-04-14T07:04:25.633Z,58.73
2024-04-14T07:06:52.686Z,57.84
2024-04-14T07:09:19.438Z,58.16
2024-04-14T07:11:46.629Z,58.20
2024-04-14T07:14:13.380Z,58.58
2024-04-14T07:16:40.198Z,58.57
2024-04-14T07:19:06.945Z,57.94
2024-04-14T07:21:37.471Z,57.37
2024-04-14T07:24:05.095Z,57.84
2024-04-14T07:26:31.785Z,57.41
2024-04-14T07:28:58.881Z,57.46
2024-04-14T07:31:25.883Z,57.42
2024-04-14T07:34:04.637Z,57.81
2024-04-14T07:36:31.569Z,57.25
2024-04-14T07:38:58.532Z,57.48
2024-04-14T07:41:25.645Z,57.42
2024-04-14T07:43:53.494Z,57.78
2024-04-14T07:46:20.300Z,57.29
2024-04-14T07:48:47.308Z,57.93
2024-04-14T07:51:14.239Z,57.11
2024-04-14T07:53:40.901Z,56.92
2024-04-14T07:56:07.984Z,57.61
2024-04-14T07:58:34.595Z,57.21
2024-04-14T08:01:03.567Z,58.18
2024-04-14T08:03:42.569Z,58.81
2024-04-14T08:06:19.615Z,58.01
2024-04-14T08:08:46.336Z,57.60
2024-04-14T08:11:13.330Z,56.83
2024-04-14T08:13:40.666Z,56.91
2024-04-14T08:16:07.969Z,57.60
2024-04-14T08:18:34.842Z,57.87
2024-04-14T08:21:03.531Z,56.86
2024-04-14T08:23:30.358Z,58.88
2024-04-14T08:25:57.109Z,60.04
2024-04-14T08:28:24.129Z,60.11
2024-04-14T08:30:51.056Z,60.86
2024-04-14T08:33:17.788Z,59.63
2024-04-14T08:35:44.523Z,60.39
2024-04-14T08:38:12.215Z,59.15
2024-04-14T08:40:39.012Z,57.79
2024-04-14T08:43:05.900Z,58.10
2024-04-14T08:45:34.313Z,58.89
2024-04-14T08:48:03.559Z,58.86
2024-04-14T08:50:31.696Z,58.69
2024-04-14T08:52:58.476Z,59.42
2024-04-14T08:55:25.334Z,58.61
2024-04-14T08:57:52.359Z,58.64
2024-04-14T09:00:20.756Z,58.54
2024-04-14T09:02:47.617Z,56.76
2024-04-14T09:05:14.587Z,56.52
2024-04-14T09:07:41.395Z,55.72
2024-04-14T09:10:08.592Z,56.58
2024-04-14T09:12:35.315Z,56.72
2024-04-14T09:15:05.749Z,56.88
2024-04-14T09:17:36.110Z,56.24
2024-04-14T09:20:03.654Z,56.10
2024-04-14T09:22:30.424Z,56.14
2024-04-14T09:24:57.235Z,54.53
2024-04-14T09:27:25.366Z,55.01
2024-04-14T09:29:54.894Z,55.94
2024-04-14T09:32:21.873Z,56.65
2024-04-14T09:34:48.635Z,57.03
2024-04-14T09:37:19.696Z,56.00
2024-04-14T09:39:48.756Z,57.24
2024-04-14T09:42:15.844Z,55.01
2024-04-14T09:44:43.778Z,55.59
2024-04-14T09:47:12.226Z,53.54
2024-04-14T09:49:40.179Z,53.77
2024-04-14T09:52:09.084Z,52.45
2024-04-14T09:54:38.002Z,52.86
2024-04-14T09:57:05.066Z,53.08
2024-04-14T09:59:31.903Z,51.52
2024-04-14T10:01:59.733Z,52.51
2024-04-14T10:04:28.502Z,52.69
2024-04-14T10:06:55.635Z,52.73
2024-04-14T10:09:25.776Z,50.34
2024-04-14T10:11:52.924Z,50.74
2024-04-14T10:14:20.574Z,50.33
2024-04-14T10:16:57.489Z,50.68
2024-04-14T10:19:24.263Z,50.57
2024-04-14T10:22:00.616Z,50.44
2024-04-14T10:24:27.559Z,50.69
2024-04-14T10:27:05.762Z,50.64
2024-04-14T10:29:32.969Z,52.01
2024-04-14T10:31:59.779Z,52.20
2024-04-14T10:34:31.071Z,52.29
2024-04-14T10:36:58.859Z,51.13
2024-04-14T10:39:25.977Z,50.86
2024-04-14T10:41:52.970Z,51.64
2024-04-14T10:44:20.204Z,52.48
2024-04-14T10:46:50.310Z,52.38
2024-04-14T10:49:18.138Z,52.10
2024-04-14T10:51:47.602Z,52.66
2024-04-14T10:54:14.276Z,51.76
2024-04-14T10:56:40.901Z,52.99
2024-04-14T10:59:07.616Z,52.78
2024-04-14T11:01:34.917Z,52.80
2024-04-14T11:04:04.416Z,51.96
2024-04-14T11:06:31.348Z,51.46
2024-04-14T11:09:00.321Z,50.92
2024-04-14T11:11:27.247Z,51.12
2024-04-14T11:13:54.300Z,49.07
2024-04-14T11:16:21.088Z,47.13
2024-04-14T11:18:49.072Z,46.29
2024-04-14T11:21:19.827Z,46.47
2024-04-14T11:23:49.758Z,47.02
2024-04-14T11:26:16.612Z,44.88
2024-04-14T11:28:43.406Z,44.46
2024-04-14T11:31:10.377Z,43.91
2024-04-14T11:33:38.536Z,43.16
2024-04-14T11:36:10.819Z,42.76
2024-04-14T11:38:38.121Z,43.39
2024-04-14T11:41:06.195Z,44.11
2024-04-14T11:43:32.945Z,44.07
2024-04-14T11:45:59.625Z,43.99
2024-04-14T11:48:26.624Z,43.88
2024-04-14T11:50:53.885Z,43.96
2024-04-14T11:53:20.720Z,43.80
2024-04-14T11:55:47.382Z,42.91
2024-04-14T11:58:17.710Z,43.06
2024-04-14T12:00:44.761Z,42.21
2024-04-14T12:03:12.875Z,42.19
2024-04-14T12:05:39.641Z,41.27
2024-04-14T12:08:06.779Z,40.87
2024-04-14T12:10:34.342Z,43.04
2024-04-14T12:13:01.295Z,43.51
2024-04-14T12:15:28.270Z,43.31
2024-04-14T12:17:55.029Z,43.89
2024-04-14T12:20:22.023Z,44.97
2024-04-14T12:22:48.754Z,44.15
2024-04-14T12:25:15.798Z,44.65
2024-04-14T12:27:42.682Z,45.35
2024-04-14T12:30:09.650Z,44.54
2024-04-14T12:32:37.187Z,44.12
2024-04-14T12:35:04.850Z,44.58
2024-04-14T12:37:31.593Z,43.76
2024-04-14T12:39:58.649Z,43.24
2024-04-14T12:42:25.640Z,43.12
2024-04-14T12:44:52.284Z,43.94
2024-04-14T12:47:18.956Z,42.70
2024-04-14T12:49:45.598Z,42.62
2024-04-14T12:52:12.304Z,42.58
2024-04-14T12:54:39.011Z,43.51
2024-04-14T12:57:05.800Z,44.18
2024-04-14T12:59:32.488Z,42.58
2024-04-14T13:01:59.210Z,44.21
2024-04-14T13:04:26.007Z,41.62
2024-04-14T13:06:52.668Z,44.40
2024-04-14T13:09:19.335Z,43.32
2024-04-14T13:11:46.273Z,44.39
2024-04-14T13:14:12.998Z,44.28
2024-04-14T13:16:39.690Z,42.62
2024-04-14T13:19:06.455Z,43.41
2024-04-14T13:21:34.852Z,42.85
2024-04-14T13:24:01.755Z,43.16
2024-04-14T13:26:29.156Z,43.52
2024-04-14T13:28:55.948Z,44.20
2024-04-14T13:31:22.603Z,43.03
2024-04-14T13:33:49.698Z,41.92
2024-04-14T13:36:16.543Z,43.53
2024-04-14T13:38:43.265Z,43.37
2024-04-14T13:41:10.288Z,42.84
2024-04-14T13:43:37.151Z,44.54
2024-04-14T13:46:04.069Z,43.12
2024-04-14T13:48:30.859Z,42.14
2024-04-14T13:50:57.542Z,45.75
2024-04-14T13:53:24.182Z,46.54
2024-04-14T13:55:50.851Z,45.88
2024-04-14T13:58:21.413Z,46.96
2024-04-14T14:00:49.077Z,45.67
2024-04-14T14:03:16.285Z,44.56
2024-04-14T14:05:43.060Z,44.49
2024-04-14T14:08:10.073Z,44.01
2024-04-14T14:10:36.936Z,46.43
2024-04-14T14:13:03.974Z,46.72
2024-04-14T14:15:30.802Z,46.17
2024-04-14T14:17:57.793Z,46.48
2024-04-14T14:20:24.442Z,45.56
2024-04-14T14:22:51.192Z,45.20
2024-04-14T14:25:17.921Z,44.62
2024-04-14T14:27:44.597Z,43.80
2024-04-14T14:30:11.405Z,43.65
2024-04-14T14:32:41.114Z,44.33
2024-04-14T14:35:26.607Z,44.41
2024-04-14T14:37:53.377Z,44.99
2024-04-14T14:40:20.141Z,45.89
2024-04-14T14:42:48.802Z,45.80
2024-04-14T14:45:15.682Z,45.07
2024-04-14T14:47:42.484Z,44.33
2024-04-14T14:50:09.317Z,44.60
2024-04-14T14:52:36.669Z,44.89
2024-04-14T14:55:04.154Z,45.00
2024-04-14T14:57:31.024Z,45.37
2024-04-14T14:59:57.724Z,45.41
2024-04-14T15:02:24.517Z,44.68
2024-04-14T15:04:51.359Z,44.55
2024-04-14T15:07:18.118Z,44.37
2024-04-14T15:09:55.401Z,43.35
2024-04-14T15:12:22.556Z,44.34
2024-04-14T15:14:50.283Z,44.00
2024-04-14T15:17:17.034Z,44.87
2024-04-14T15:19:45.485Z,45.66
2024-04-14T15:22:14.565Z,45.65
2024-04-14T15:24:41.866Z,45.06
2024-04-14T15:27:08.752Z,44.67
2024-04-14T15:29:35.536Z,44.79
2024-04-14T15:32:02.827Z,43.67
2024-04-14T15:34:29.565Z,44.27
2024-04-14T15:36:57.375Z,43.48
2024-04-14T15:39:25.882Z,43.58
2024-04-14T15:41:53.117Z,44.18
2024-04-14T15:44:25.841Z,44.38
2024-04-14T15:46:54.499Z,44.69
2024-04-14T15:49:21.448Z,45.77
2024-04-14T15:51:48.305Z,46.27
2024-04-14T15:54:16.272Z,46.40
2024-04-14T15:56:43.038Z,46.67
2024-04-14T15:59:10.624Z,46.98
2024-04-14T16:01:37.501Z,47.75
2024-04-14T16:04:04.458Z,46.81
2024-04-14T16:06:31.257Z,48.01
2024-04-14T16:08:58.282Z,47.73
2024-04-14T16:11:25.384Z,47.75
2024-04-14T16:13:53.838Z,48.24
2024-04-14T16:16:21.578Z,48.36
2024-04-14T16:18:48.812Z,48.92
2024-04-14T16:21:15.708Z,48.20
2024-04-14T16:23:47.318Z,48.02
2024-04-14T16:26:14.730Z,48.65
2024-04-14T16:28:42.135Z,47.75
2024-04-14T16:31:10.437Z,48.61
2024-04-14T16:33:37.372Z,48.41
2024-04-14T16:36:05.907Z,48.82
2024-04-14T16:38:32.611Z,48.62
2024-04-14T16:40:59.523Z,48.85
2024-04-14T16:43:26.289Z,48.64
2024-04-14T16:45:53.260Z,48.97
2024-04-14T16:48:20.085Z,49.07
2024-04-14T16:50:46.871Z,49.56
2024-04-14T16:53:13.598Z,50.04
2024-04-14T16:55:40.464Z,50.20
2024-04-14T16:58:07.343Z,49.79
2024-04-14T17:00:36.340Z,50.10
2024-04-14T17:03:03.750Z,50.01
2024-04-14T17:05:30.586Z,49.90
2024-04-14T17:07:57.383Z,48.79
2024-04-14T17:10:24.746Z,49.80
2024-04-14T17:12:51.436Z,49.57
2024-04-14T17:15:18.223Z,49.82
2024-04-14T17:17:45.173Z,50.08
2024-04-14T17:20:11.976Z,49.85
2024-04-14T17:22:38.689Z,49.88
2024-04-14T17:25:06.372Z,50.04
2024-04-14T17:27:33.086Z,49.16
2024-04-14T17:29:59.855Z,49.84
2024-04-14T17:32:26.531Z,50.34
2024-04-14T17:34:54.219Z,49.99
2024-04-14T17:37:21.392Z,51.14
2024-04-14T17:39:48.254Z,50.99
2024-04-14T17:42:15.057Z,51.55
2024-04-14T17:44:41.819Z,50.84
2024-04-14T17:47:08.881Z,50.99
2024-04-14T17:49:35.739Z,52.49
2024-04-14T17:52:02.460Z,51.89
2024-04-14T17:54:29.291Z,52.26
2024-04-14T17:57:01.908Z,51.99
2024-04-14T17:59:29.053Z,52.64
2024-04-14T18:01:55.896Z,52.39
2024-04-14T18:04:22.743Z,51.59
2024-04-14T18:06:49.695Z,52.28
2024-04-14T18:09:18.545Z,51.83
2024-04-14T18:11:45.230Z,51.91
2024-04-14T18:14:15.112Z,51.95
2024-04-14T18:16:42.113Z,51.81
2024-04-14T18:19:09.685Z,51.84
2024-04-14T18:21:36.495Z,51.41
2024-04-14T18:24:03.265Z,51.59
2024-04-14T18:26:35.310Z,51.70
2024-04-14T18:29:02.482Z,51.79
2024-04-14T18:31:29.809Z,52.18
2024-04-14T18:33:57.223Z,52.08
2024-04-14T18:36:23.913Z,52.56
2024-04-14T18:38:50.700Z,52.49
2024-04-14T18:41:17.420Z,52.93
2024-04-14T18:43:44.130Z,52.68
2024-04-14T18:46:11.589Z,53.12
2024-04-14T18:48:40.841Z,53.14
2024-04-14T18:51:07.701Z,52.94
2024-04-14T18:53:34.403Z,53.22
2024-04-14T18:56:01.792Z,53.54
2024-04-14T18:58:33.085Z,53.41
2024-04-14T19:01:03.387Z,53.06
2024-04-14T19:03:30.608Z,53.93
2024-04-14T19:06:04.645Z,53.86
2024-04-14T19:08:31.761Z,53.84
2024-04-14T19:10:58.540Z,53.60
2024-04-14T19:13:25.426Z,53.78
2024-04-14T19:15:59.566Z,54.03
2024-04-14T19:18:26.517Z,52.84
2024-04-14T19:20:53.732Z,53.16
2024-04-14T19:23:21.312Z,53.67
2024-04-14T19:25:48.572Z,53.03
2024-04-14T19:28:16.951Z,53.29
2024-04-14T19:30:44.218Z,53.18
2024-04-14T19:33:10.991Z,53.21
2024-04-14T19:35:43.896Z,53.73
2024-04-14T19:38:17.967Z,53.44
2024-04-14T19:40:44.655Z,53.10
2024-04-14T19:43:11.544Z,53.09
2024-04-14T19:45:38.304Z,53.04
2024-04-14T19:48:05.510Z,53.40
2024-04-14T19:50:32.480Z,54.30
2024-04-14T19:52:59.305Z,54.40
2024-04-14T19:55:25.994Z,54.59
2024-04-14T19:57:54.397Z,54.48
2024-04-14T20:00:22.016Z,54.64
2024-04-14T20:02:48.977Z,54.93
2024-04-14T20:05:15.706Z,55.52
2024-04-14T20:07:42.514Z,56.19
2024-04-14T20:10:10.914Z,56.04
2024-04-14T20:12:37.701Z,56.08
2024-04-14T20:15:05.541Z,56.21
2024-04-14T20:17:32.387Z,56.01
2024-04-14T20:19:59.177Z,56.10
2024-04-14T20:22:26.182Z,56.24
2024-04-14T20:24:52.850Z,56.37
2024-04-14T20:27:19.590Z,56.44
2024-04-14T20:29:46.394Z,56.28
2024-04-14T20:32:13.076Z,56.46
2024-04-14T20:34:41.036Z,56.54
2024-04-14T20:37:07.756Z,56.69
2024-04-14T20:39:34.433Z,56.72
2024-04-14T20:42:01.152Z,57.30
2024-04-14T20:44:27.956Z,57.73
2024-04-14T20:46:54.679Z,58.66
2024-04-14T20:49:21.333Z,58.34
2024-04-14T20:51:48.316Z,58.97
2024-04-14T20:54:15.006Z,59.48
2024-04-14T20:56:42.183Z,58.45
2024-04-14T20:59:09.079Z,58.64
2024-04-14T21:01:35.972Z,58.27
2024-04-14T21:04:02.653Z,58.80
2024-04-14T21:06:29.403Z,59.74
2024-04-14T21:08:56.063Z,60.55
2024-04-14T21:11:22.887Z,61.01
2024-04-14T21:13:49.689Z,60.60
2024-04-14T21:16:16.743Z,61.72
2024-04-14T21:18:43.667Z,61.84
2024-04-14T21:21:10.692Z,61.27
2024-04-14T21:23:40.387Z,60.36
2024-04-14T21:26:09.319Z,61.40
2024-04-14T21:28:37.293Z,61.96
2024-04-14T21:31:04.939Z,62.43
2024-04-14T21:33:32.233Z,62.49
2024-04-14T21:35:59.119Z,62.50
2024-04-14T21:38:26.025Z,63.31
2024-04-14T21:40:54.137Z,63.05
2024-04-14T21:43:20.787Z,63.84
2024-04-14T21:45:58.076Z,63.27
2024-04-14T21:48:25.540Z,64.92
2024-04-14T21:51:06.102Z,65.29
2024-04-14T21:53:34.274Z,64.80
2024-04-14T21:56:01.641Z,66.29
2024-04-14T21:58:33.181Z,65.68
2024-04-14T22:01:02.188Z,65.84
2024-04-14T22:03:30.329Z,66.37
2024-04-14T22:05:58.852Z,66.50
2024-04-14T22:08:30.856Z,67.26
2024-04-14T22:11:00.162Z,68.94
2024-04-14T22:13:29.190Z,67.97
2024-04-14T22:15:56.087Z,67.56
2024-04-14T22:18:23.292Z,66.13
2024-04-14T22:20:50.267Z,66.60
2024-04-14T22:23:16.932Z,66.71
2024-04-14T22:25:43.642Z,66.62
2024-04-14T22:28:10.283Z,66.75
2024-04-14T22:30:38.020Z,66.88
2024-04-14T22:33:06.462Z,67.51
2024-04-14T22:35:33.280Z,67.82
2024-04-14T22:38:04.652Z,68.08
2024-04-14T22:40:31.611Z,68.25
2024-04-14T22:42:58.644Z,69.22
2024-04-14T22:45:25.519Z,68.67
2024-04-14T22:47:52.502Z,68.64
2024-04-14T22:50:19.716Z,67.99
2024-04-14T22:52:46.463Z,68.26
2024-04-14T22:55:13.208Z,68.02
2024-04-14T22:57:40.147Z,68.18
2024-04-14T23:00:11.238Z,69.37
2024-04-14T23:02:38.227Z,68.42
2024-04-14T23:05:05.381Z,67.53
2024-04-14T23:07:32.194Z,68.56
2024-04-14T23:09:58.935Z,69.15
2024-04-14T23:12:25.905Z,69.01
2024-04-14T23:14:52.720Z,68.86
2024-04-14T23:17:19.478Z,68.97
2024-04-14T23:19:46.189Z,68.53
2024-04-14T23:22:12.899Z,69.20
2024-04-14T23:24:39.822Z,72.77
2024-04-14T23:27:06.713Z,71.91
2024-04-14T23:29:33.320Z,70.94
2024-04-14T23:31:59.990Z,69.33
2024-04-14T23:34:26.668Z,68.96
2024-04-14T23:36:56.346Z,68.33
2024-04-14T23:39:23.264Z,68.11
2024-04-14T23:41:50.722Z,67.97
2024-04-14T23:44:17.346Z,68.38
2024-04-14T23:46:44.536Z,68.82
2024-04-14T23:49:11.318Z,68.65
2024-04-14T23:51:38.097Z,68.68
2024-04-14T23:54:05.891Z,69.06
2024-04-14T23:56:32.515Z,69.38
2024-04-14T23:58:59.155Z,68.45
